sensor_id;sensor_type;location;lat;lon;timestamp;P1;durP1;ratioP1;P2;durP2;ratioP2
64063;SDS011;50314;50.618;10.642;2022-11-20T00:00:54;9.23;;;6.53;;
64063;SDS011;50314;50.618;10.642;2022-11-20T00:03:20;8.20;;;6.18;;
64063;SDS011;50314;50.618;10.642;2022-11-20T00:05:46;9.63;;;6.68;;
64063;SDS011;50314;50.618;10.642;2022-11-20T00:08:11;7.72;;;6.55;;
64063;SDS011;50314;50.618;10.642;2022-11-20T00:10:37;7.18;;;5.25;;
64063;SDS011;50314;50.618;10.642;2022-11-20T00:13:04;7.43;;;5.35;;
64063;SDS011;50314;50.618;10.642;2022-11-20T00:15:29;7.90;;;5.60;;
64063;SDS011;50314;50.618;10.642;2022-11-20T00:17:55;8.32;;;6.50;;
64063;SDS011;50314;50.618;10.642;2022-11-20T00:20:21;8.50;;;6.30;;
64063;SDS011;50314;50.618;10.642;2022-11-20T00:22:46;7.47;;;5.53;;
64063;SDS011;50314;50.618;10.642;2022-11-20T00:25:12;7.80;;;6.20;;
64063;SDS011;50314;50.618;10.642;2022-11-20T00:27:38;7.38;;;5.90;;
64063;SDS011;50314;50.618;10.642;2022-11-20T00:30:04;7.82;;;5.88;;
64063;SDS011;50314;50.618;10.642;2022-11-20T00:32:30;6.55;;;5.50;;
64063;SDS011;50314;50.618;10.642;2022-11-20T00:34:55;7.63;;;5.32;;
64063;SDS011;50314;50.618;10.642;2022-11-20T00:37:21;8.93;;;5.97;;
64063;SDS011;50314;50.618;10.642;2022-11-20T00:39:46;7.90;;;5.50;;
64063;SDS011;50314;50.618;10.642;2022-11-20T00:42:12;8.10;;;5.82;;
64063;SDS011;50314;50.618;10.642;2022-11-20T00:44:37;7.55;;;5.20;;
64063;SDS011;50314;50.618;10.642;2022-11-20T00:47:03;7.63;;;5.53;;
64063;SDS011;50314;50.618;10.642;2022-11-20T00:49:28;7.47;;;5.18;;
64063;SDS011;50314;50.618;10.642;2022-11-20T00:51:54;7.53;;;5.97;;
64063;SDS011;50314;50.618;10.642;2022-11-20T00:54:19;6.72;;;4.95;;
64063;SDS011;50314;50.618;10.642;2022-11-20T00:56:45;8.25;;;6.13;;
64063;SDS011;50314;50.618;10.642;2022-11-20T00:59:10;7.07;;;5.00;;
64063;SDS011;50314;50.618;10.642;2022-11-20T01:01:36;6.75;;;5.00;;
64063;SDS011;50314;50.618;10.642;2022-11-20T01:04:02;7.53;;;5.72;;
64063;SDS011;50314;50.618;10.642;2022-11-20T01:06:37;6.85;;;5.57;;
64063;SDS011;50314;50.618;10.642;2022-11-20T01:09:05;6.60;;;5.03;;
64063;SDS011;50314;50.618;10.642;2022-11-20T01:11:34;7.65;;;5.47;;
64063;SDS011;50314;50.618;10.642;2022-11-20T01:14:02;7.63;;;6.05;;
64063;SDS011;50314;50.618;10.642;2022-11-20T01:16:36;8.18;;;5.38;;
64063;SDS011;50314;50.618;10.642;2022-11-20T01:19:05;6.88;;;5.10;;
64063;SDS011;50314;50.618;10.642;2022-11-20T01:21:33;6.43;;;4.85;;
64063;SDS011;50314;50.618;10.642;2022-11-20T01:24:04;6.65;;;5.57;;
64063;SDS011;50314;50.618;10.642;2022-11-20T01:26:32;7.45;;;5.68;;
64063;SDS011;50314;50.618;10.642;2022-11-20T01:28:59;6.70;;;5.03;;
64063;SDS011;50314;50.618;10.642;2022-11-20T01:31:35;5.90;;;4.70;;
64063;SDS011;50314;50.618;10.642;2022-11-20T01:34:11;6.55;;;5.05;;
64063;SDS011;50314;50.618;10.642;2022-11-20T01:36:39;5.85;;;4.10;;
64063;SDS011;50314;50.618;10.642;2022-11-20T01:39:07;6.55;;;4.63;;
64063;SDS011;50314;50.618;10.642;2022-11-20T01:41:38;6.72;;;4.60;;
64063;SDS011;50314;50.618;10.642;2022-11-20T01:44:42;5.88;;;4.55;;
64063;SDS011;50314;50.618;10.642;2022-11-20T01:47:41;6.63;;;4.32;;
64063;SDS011;50314;50.618;10.642;2022-11-20T01:50:15;6.22;;;3.92;;
64063;SDS011;50314;50.618;10.642;2022-11-20T01:52:45;5.38;;;4.00;;
64063;SDS011;50314;50.618;10.642;2022-11-20T01:55:19;6.15;;;4.60;;
64063;SDS011;50314;50.618;10.642;2022-11-20T01:57:48;5.65;;;3.83;;
64063;SDS011;50314;50.618;10.642;2022-11-20T02:00:16;6.22;;;4.28;;
64063;SDS011;50314;50.618;10.642;2022-11-20T02:02:47;6.13;;;4.60;;
64063;SDS011;50314;50.618;10.642;2022-11-20T02:05:38;5.25;;;4.25;;
64063;SDS011;50314;50.618;10.642;2022-11-20T02:08:09;5.85;;;4.60;;
64063;SDS011;50314;50.618;10.642;2022-11-20T02:10:35;6.72;;;4.43;;
64063;SDS011;50314;50.618;10.642;2022-11-20T02:13:00;5.40;;;4.10;;
64063;SDS011;50314;50.618;10.642;2022-11-20T02:15:45;5.53;;;4.00;;
64063;SDS011;50314;50.618;10.642;2022-11-20T02:18:11;5.93;;;4.03;;
64063;SDS011;50314;50.618;10.642;2022-11-20T02:20:42;5.85;;;3.63;;
64063;SDS011;50314;50.618;10.642;2022-11-20T02:26:01;4.45;;;3.13;;
64063;SDS011;50314;50.618;10.642;2022-11-20T02:28:30;5.38;;;3.50;;
64063;SDS011;50314;50.618;10.642;2022-11-20T02:30:56;4.97;;;3.45;;
64063;SDS011;50314;50.618;10.642;2022-11-20T02:33:21;4.55;;;3.50;;
64063;SDS011;50314;50.618;10.642;2022-11-20T02:35:47;4.75;;;2.95;;
64063;SDS011;50314;50.618;10.642;2022-11-20T02:38:13;5.28;;;3.70;;
64063;SDS011;50314;50.618;10.642;2022-11-20T02:40:39;4.80;;;3.42;;
64063;SDS011;50314;50.618;10.642;2022-11-20T02:43:05;5.20;;;3.38;;
64063;SDS011;50314;50.618;10.642;2022-11-20T02:45:30;5.72;;;3.30;;
64063;SDS011;50314;50.618;10.642;2022-11-20T02:47:56;6.20;;;3.83;;
64063;SDS011;50314;50.618;10.642;2022-11-20T02:50:22;4.50;;;3.15;;
64063;SDS011;50314;50.618;10.642;2022-11-20T02:52:47;4.53;;;3.00;;
64063;SDS011;50314;50.618;10.642;2022-11-20T02:55:12;5.25;;;4.05;;
64063;SDS011;50314;50.618;10.642;2022-11-20T02:57:38;4.13;;;2.42;;
64063;SDS011;50314;50.618;10.642;2022-11-20T03:00:04;5.47;;;3.67;;
64063;SDS011;50314;50.618;10.642;2022-11-20T03:02:31;4.65;;;2.92;;
64063;SDS011;50314;50.618;10.642;2022-11-20T03:04:57;5.28;;;3.10;;
64063;SDS011;50314;50.618;10.642;2022-11-20T03:07:23;3.88;;;2.78;;
64063;SDS011;50314;50.618;10.642;2022-11-20T03:09:48;4.40;;;3.10;;
64063;SDS011;50314;50.618;10.642;2022-11-20T03:12:13;4.07;;;2.85;;
64063;SDS011;50314;50.618;10.642;2022-11-20T03:14:39;5.22;;;3.28;;
64063;SDS011;50314;50.618;10.642;2022-11-20T03:17:05;4.68;;;3.55;;
64063;SDS011;50314;50.618;10.642;2022-11-20T03:19:30;4.55;;;3.38;;
64063;SDS011;50314;50.618;10.642;2022-11-20T03:21:56;4.97;;;2.95;;
64063;SDS011;50314;50.618;10.642;2022-11-20T03:24:21;4.30;;;2.90;;
64063;SDS011;50314;50.618;10.642;2022-11-20T03:26:47;4.65;;;2.85;;
64063;SDS011;50314;50.618;10.642;2022-11-20T03:29:12;4.05;;;3.05;;
64063;SDS011;50314;50.618;10.642;2022-11-20T03:31:38;4.45;;;3.30;;
64063;SDS011;50314;50.618;10.642;2022-11-20T03:34:06;4.30;;;3.30;;
64063;SDS011;50314;50.618;10.642;2022-11-20T03:36:32;4.18;;;2.90;;
64063;SDS011;50314;50.618;10.642;2022-11-20T03:38:58;4.38;;;2.75;;
64063;SDS011;50314;50.618;10.642;2022-11-20T03:41:25;4.43;;;3.22;;
64063;SDS011;50314;50.618;10.642;2022-11-20T03:43:59;3.67;;;2.67;;
64063;SDS011;50314;50.618;10.642;2022-11-20T03:46:26;3.92;;;2.83;;
64063;SDS011;50314;50.618;10.642;2022-11-20T03:48:52;4.28;;;2.80;;
64063;SDS011;50314;50.618;10.642;2022-11-20T03:53:46;3.63;;;2.42;;
64063;SDS011;50314;50.618;10.642;2022-11-20T03:56:13;4.50;;;3.25;;
64063;SDS011;50314;50.618;10.642;2022-11-20T03:58:40;3.08;;;2.35;;
64063;SDS011;50314;50.618;10.642;2022-11-20T04:01:07;4.45;;;3.00;;
64063;SDS011;50314;50.618;10.642;2022-11-20T04:03:35;4.72;;;2.72;;
64063;SDS011;50314;50.618;10.642;2022-11-20T04:06:03;3.50;;;2.38;;
64063;SDS011;50314;50.618;10.642;2022-11-20T04:08:33;3.53;;;2.42;;
64063;SDS011;50314;50.618;10.642;2022-11-20T04:11:09;4.38;;;3.08;;
64063;SDS011;50314;50.618;10.642;2022-11-20T04:13:34;3.35;;;2.58;;
64063;SDS011;50314;50.618;10.642;2022-11-20T04:15:59;4.13;;;3.00;;
64063;SDS011;50314;50.618;10.642;2022-11-20T04:18:25;3.83;;;2.60;;
64063;SDS011;50314;50.618;10.642;2022-11-20T04:20:50;3.97;;;2.80;;
64063;SDS011;50314;50.618;10.642;2022-11-20T04:23:16;3.83;;;2.70;;
64063;SDS011;50314;50.618;10.642;2022-11-20T04:25:41;3.38;;;2.22;;
64063;SDS011;50314;50.618;10.642;2022-11-20T04:28:06;3.50;;;2.63;;
64063;SDS011;50314;50.618;10.642;2022-11-20T04:30:32;4.38;;;2.72;;
64063;SDS011;50314;50.618;10.642;2022-11-20T04:32:57;3.85;;;2.70;;
64063;SDS011;50314;50.618;10.642;2022-11-20T04:35:23;3.63;;;2.28;;
64063;SDS011;50314;50.618;10.642;2022-11-20T04:37:50;4.13;;;2.38;;
64063;SDS011;50314;50.618;10.642;2022-11-20T04:40:17;4.00;;;2.70;;
64063;SDS011;50314;50.618;10.642;2022-11-20T04:42:42;3.67;;;2.55;;
64063;SDS011;50314;50.618;10.642;2022-11-20T04:45:08;3.67;;;2.33;;
64063;SDS011;50314;50.618;10.642;2022-11-20T04:47:33;4.00;;;2.65;;
64063;SDS011;50314;50.618;10.642;2022-11-20T04:49:59;2.90;;;2.40;;
64063;SDS011;50314;50.618;10.642;2022-11-20T04:52:24;3.88;;;2.33;;
64063;SDS011;50314;50.618;10.642;2022-11-20T04:54:49;4.38;;;2.67;;
64063;SDS011;50314;50.618;10.642;2022-11-20T04:57:17;4.80;;;2.50;;
64063;SDS011;50314;50.618;10.642;2022-11-20T04:59:43;4.18;;;2.53;;
64063;SDS011;50314;50.618;10.642;2022-11-20T05:02:08;4.05;;;2.88;;
64063;SDS011;50314;50.618;10.642;2022-11-20T05:04:34;3.95;;;2.63;;
64063;SDS011;50314;50.618;10.642;2022-11-20T05:07:00;3.55;;;2.28;;
64063;SDS011;50314;50.618;10.642;2022-11-20T05:09:25;3.75;;;2.38;;
64063;SDS011;50314;50.618;10.642;2022-11-20T05:11:51;3.67;;;2.67;;
64063;SDS011;50314;50.618;10.642;2022-11-20T05:14:16;4.22;;;3.05;;
64063;SDS011;50314;50.618;10.642;2022-11-20T05:16:42;3.75;;;2.50;;
64063;SDS011;50314;50.618;10.642;2022-11-20T05:19:07;3.35;;;2.40;;
64063;SDS011;50314;50.618;10.642;2022-11-20T05:21:32;3.65;;;2.78;;
64063;SDS011;50314;50.618;10.642;2022-11-20T05:23:58;3.20;;;2.40;;
64063;SDS011;50314;50.618;10.642;2022-11-20T05:26:23;3.92;;;2.85;;
64063;SDS011;50314;50.618;10.642;2022-11-20T05:28:49;3.70;;;2.80;;
64063;SDS011;50314;50.618;10.642;2022-11-20T05:31:21;2.78;;;2.30;;
64063;SDS011;50314;50.618;10.642;2022-11-20T05:33:48;3.88;;;2.22;;
64063;SDS011;50314;50.618;10.642;2022-11-20T05:36:14;2.80;;;2.22;;
64063;SDS011;50314;50.618;10.642;2022-11-20T05:38:40;3.42;;;2.00;;
64063;SDS011;50314;50.618;10.642;2022-11-20T05:41:08;3.60;;;2.65;;
64063;SDS011;50314;50.618;10.642;2022-11-20T05:43:36;3.20;;;2.28;;
64063;SDS011;50314;50.618;10.642;2022-11-20T05:46:03;2.95;;;2.33;;
64063;SDS011;50314;50.618;10.642;2022-11-20T05:48:31;3.60;;;2.60;;
64063;SDS011;50314;50.618;10.642;2022-11-20T05:50:57;3.25;;;2.15;;
64063;SDS011;50314;50.618;10.642;2022-11-20T05:53:24;3.58;;;2.50;;
64063;SDS011;50314;50.618;10.642;2022-11-20T05:56:00;3.58;;;2.03;;
64063;SDS011;50314;50.618;10.642;2022-11-20T05:58:31;3.35;;;2.65;;
64063;SDS011;50314;50.618;10.642;2022-11-20T06:03:58;3.50;;;2.30;;
64063;SDS011;50314;50.618;10.642;2022-11-20T06:06:23;3.92;;;2.30;;
64063;SDS011;50314;50.618;10.642;2022-11-20T06:08:50;3.40;;;2.28;;
64063;SDS011;50314;50.618;10.642;2022-11-20T06:11:16;3.13;;;2.10;;
64063;SDS011;50314;50.618;10.642;2022-11-20T06:13:42;3.53;;;2.50;;
64063;SDS011;50314;50.618;10.642;2022-11-20T06:16:09;4.13;;;2.47;;
64063;SDS011;50314;50.618;10.642;2022-11-20T06:18:35;3.53;;;2.65;;
64063;SDS011;50314;50.618;10.642;2022-11-20T06:21:03;2.97;;;2.38;;
64063;SDS011;50314;50.618;10.642;2022-11-20T06:23:33;3.08;;;2.22;;
64063;SDS011;50314;50.618;10.642;2022-11-20T06:26:04;3.92;;;2.83;;
64063;SDS011;50314;50.618;10.642;2022-11-20T06:28:34;3.70;;;2.33;;
64063;SDS011;50314;50.618;10.642;2022-11-20T06:31:00;3.30;;;2.45;;
64063;SDS011;50314;50.618;10.642;2022-11-20T06:33:26;4.25;;;3.15;;
64063;SDS011;50314;50.618;10.642;2022-11-20T06:35:51;3.92;;;2.95;;
64063;SDS011;50314;50.618;10.642;2022-11-20T06:38:17;3.55;;;2.65;;
64063;SDS011;50314;50.618;10.642;2022-11-20T06:40:42;3.72;;;2.45;;
64063;SDS011;50314;50.618;10.642;2022-11-20T06:43:09;2.85;;;2.30;;
64063;SDS011;50314;50.618;10.642;2022-11-20T06:45:34;3.05;;;2.30;;
64063;SDS011;50314;50.618;10.642;2022-11-20T06:48:00;4.70;;;2.80;;
64063;SDS011;50314;50.618;10.642;2022-11-20T06:50:26;3.78;;;2.70;;
64063;SDS011;50314;50.618;10.642;2022-11-20T06:52:51;4.28;;;2.65;;
64063;SDS011;50314;50.618;10.642;2022-11-20T06:55:17;3.47;;;2.53;;
64063;SDS011;50314;50.618;10.642;2022-11-20T06:57:42;4.32;;;2.47;;
64063;SDS011;50314;50.618;10.642;2022-11-20T07:00:08;3.35;;;2.95;;
64063;SDS011;50314;50.618;10.642;2022-11-20T07:02:34;4.28;;;2.70;;
64063;SDS011;50314;50.618;10.642;2022-11-20T07:04:59;3.40;;;2.30;;
64063;SDS011;50314;50.618;10.642;2022-11-20T07:07:25;4.38;;;2.83;;
64063;SDS011;50314;50.618;10.642;2022-11-20T07:09:50;3.88;;;2.60;;
64063;SDS011;50314;50.618;10.642;2022-11-20T07:12:16;3.80;;;2.40;;
64063;SDS011;50314;50.618;10.642;2022-11-20T07:14:41;3.22;;;2.55;;
64063;SDS011;50314;50.618;10.642;2022-11-20T07:17:07;4.25;;;2.75;;
64063;SDS011;50314;50.618;10.642;2022-11-20T07:19:32;3.80;;;2.58;;
64063;SDS011;50314;50.618;10.642;2022-11-20T07:21:57;3.83;;;2.83;;
64063;SDS011;50314;50.618;10.642;2022-11-20T07:24:23;3.63;;;2.60;;
64063;SDS011;50314;50.618;10.642;2022-11-20T07:26:48;4.55;;;2.90;;
64063;SDS011;50314;50.618;10.642;2022-11-20T07:29:14;4.40;;;3.22;;
64063;SDS011;50314;50.618;10.642;2022-11-20T07:31:40;4.80;;;3.30;;
64063;SDS011;50314;50.618;10.642;2022-11-20T07:34:06;4.03;;;3.00;;
64063;SDS011;50314;50.618;10.642;2022-11-20T07:36:31;4.22;;;2.85;;
64063;SDS011;50314;50.618;10.642;2022-11-20T07:38:57;4.13;;;2.90;;
64063;SDS011;50314;50.618;10.642;2022-11-20T07:41:22;5.18;;;3.28;;
64063;SDS011;50314;50.618;10.642;2022-11-20T07:43:47;3.95;;;2.85;;
64063;SDS011;50314;50.618;10.642;2022-11-20T07:46:13;6.88;;;3.15;;
64063;SDS011;50314;50.618;10.642;2022-11-20T07:48:39;4.60;;;3.58;;
64063;SDS011;50314;50.618;10.642;2022-11-20T07:51:04;3.72;;;2.90;;
64063;SDS011;50314;50.618;10.642;2022-11-20T07:53:30;4.82;;;3.20;;
64063;SDS011;50314;50.618;10.642;2022-11-20T07:55:58;4.75;;;3.17;;
64063;SDS011;50314;50.618;10.642;2022-11-20T07:58:25;4.70;;;3.40;;
64063;SDS011;50314;50.618;10.642;2022-11-20T08:00:51;4.60;;;3.10;;
64063;SDS011;50314;50.618;10.642;2022-11-20T08:03:16;4.43;;;3.15;;
64063;SDS011;50314;50.618;10.642;2022-11-20T08:05:42;3.95;;;2.97;;
64063;SDS011;50314;50.618;10.642;2022-11-20T08:08:07;5.57;;;3.42;;
64063;SDS011;50314;50.618;10.642;2022-11-20T08:10:33;7.25;;;3.42;;
64063;SDS011;50314;50.618;10.642;2022-11-20T08:12:58;5.07;;;3.40;;
64063;SDS011;50314;50.618;10.642;2022-11-20T08:15:47;3.97;;;3.58;;
64063;SDS011;50314;50.618;10.642;2022-11-20T08:18:14;4.18;;;3.20;;
64063;SDS011;50314;50.618;10.642;2022-11-20T08:20:40;5.28;;;3.25;;
64063;SDS011;50314;50.618;10.642;2022-11-20T08:23:06;5.10;;;3.95;;
64063;SDS011;50314;50.618;10.642;2022-11-20T08:25:33;4.75;;;3.38;;
64063;SDS011;50314;50.618;10.642;2022-11-20T08:30:27;4.63;;;3.40;;
64063;SDS011;50314;50.618;10.642;2022-11-20T08:32:53;5.80;;;3.55;;
64063;SDS011;50314;50.618;10.642;2022-11-20T08:35:19;5.32;;;3.53;;
64063;SDS011;50314;50.618;10.642;2022-11-20T08:37:46;3.95;;;3.08;;
64063;SDS011;50314;50.618;10.642;2022-11-20T08:40:12;4.72;;;3.42;;
64063;SDS011;50314;50.618;10.642;2022-11-20T08:42:45;4.60;;;3.05;;
64063;SDS011;50314;50.618;10.642;2022-11-20T08:47:36;4.57;;;3.33;;
64063;SDS011;50314;50.618;10.642;2022-11-20T08:50:02;5.70;;;3.72;;
64063;SDS011;50314;50.618;10.642;2022-11-20T08:52:27;4.95;;;3.30;;
64063;SDS011;50314;50.618;10.642;2022-11-20T08:54:53;5.22;;;3.33;;
64063;SDS011;50314;50.618;10.642;2022-11-20T08:57:18;5.20;;;3.65;;
64063;SDS011;50314;50.618;10.642;2022-11-20T08:59:44;6.50;;;4.07;;
64063;SDS011;50314;50.618;10.642;2022-11-20T09:02:09;4.95;;;3.58;;
64063;SDS011;50314;50.618;10.642;2022-11-20T09:04:35;5.60;;;3.38;;
64063;SDS011;50314;50.618;10.642;2022-11-20T09:07:00;4.57;;;3.33;;
64063;SDS011;50314;50.618;10.642;2022-11-20T09:09:25;5.03;;;3.70;;
64063;SDS011;50314;50.618;10.642;2022-11-20T09:11:51;5.20;;;3.95;;
64063;SDS011;50314;50.618;10.642;2022-11-20T09:14:16;7.13;;;4.13;;
64063;SDS011;50314;50.618;10.642;2022-11-20T09:16:42;5.20;;;3.20;;
64063;SDS011;50314;50.618;10.642;2022-11-20T09:21:34;4.87;;;3.83;;
64063;SDS011;50314;50.618;10.642;2022-11-20T09:24:00;5.35;;;3.50;;
64063;SDS011;50314;50.618;10.642;2022-11-20T09:26:25;6.53;;;4.20;;
64063;SDS011;50314;50.618;10.642;2022-11-20T09:28:51;5.10;;;3.85;;
64063;SDS011;50314;50.618;10.642;2022-11-20T09:31:21;6.60;;;4.38;;
64063;SDS011;50314;50.618;10.642;2022-11-20T09:33:48;6.10;;;4.43;;
64063;SDS011;50314;50.618;10.642;2022-11-20T09:36:13;6.13;;;3.92;;
64063;SDS011;50314;50.618;10.642;2022-11-20T09:38:39;6.55;;;4.28;;
64063;SDS011;50314;50.618;10.642;2022-11-20T09:41:05;8.75;;;5.25;;
64063;SDS011;50314;50.618;10.642;2022-11-20T09:43:43;10.20;;;6.40;;
64063;SDS011;50314;50.618;10.642;2022-11-20T09:46:21;9.52;;;5.95;;
64063;SDS011;50314;50.618;10.642;2022-11-20T09:51:43;9.63;;;6.85;;
64063;SDS011;50314;50.618;10.642;2022-11-20T09:54:16;9.52;;;6.85;;
64063;SDS011;50314;50.618;10.642;2022-11-20T09:57:02;11.55;;;7.07;;
64063;SDS011;50314;50.618;10.642;2022-11-20T10:02:19;10.43;;;6.53;;
64063;SDS011;50314;50.618;10.642;2022-11-20T10:05:35;10.88;;;6.72;;
64063;SDS011;50314;50.618;10.642;2022-11-20T10:07:48;10.52;;;6.88;;
64063;SDS011;50314;50.618;10.642;2022-11-20T10:10:30;9.63;;;6.85;;
64063;SDS011;50314;50.618;10.642;2022-11-20T10:13:09;9.55;;;7.03;;
64063;SDS011;50314;50.618;10.642;2022-11-20T10:15:55;10.60;;;6.25;;
64063;SDS011;50314;50.618;10.642;2022-11-20T10:23:59;8.75;;;5.95;;
64063;SDS011;50314;50.618;10.642;2022-11-20T10:29:32;9.35;;;6.18;;
64063;SDS011;50314;50.618;10.642;2022-11-20T10:38:12;9.25;;;6.28;;
64063;SDS011;50314;50.618;10.642;2022-11-20T10:41:01;9.20;;;6.00;;
64063;SDS011;50314;50.618;10.642;2022-11-20T10:43:46;8.35;;;5.90;;
64063;SDS011;50314;50.618;10.642;2022-11-20T10:46:18;8.52;;;5.93;;
64063;SDS011;50314;50.618;10.642;2022-11-20T10:48:47;8.05;;;5.85;;
64063;SDS011;50314;50.618;10.642;2022-11-20T10:56:38;7.75;;;5.43;;
64063;SDS011;50314;50.618;10.642;2022-11-20T11:01:47;8.18;;;5.85;;
64063;SDS011;50314;50.618;10.642;2022-11-20T11:06:54;8.80;;;5.60;;
64063;SDS011;50314;50.618;10.642;2022-11-20T11:09:32;9.65;;;6.20;;
64063;SDS011;50314;50.618;10.642;2022-11-20T11:12:00;9.82;;;6.00;;
64063;SDS011;50314;50.618;10.642;2022-11-20T11:14:26;8.20;;;5.72;;
64063;SDS011;50314;50.618;10.642;2022-11-20T11:16:56;10.02;;;6.25;;
64063;SDS011;50314;50.618;10.642;2022-11-20T11:19:22;13.20;;;6.43;;
64063;SDS011;50314;50.618;10.642;2022-11-20T11:21:53;9.15;;;6.53;;
64063;SDS011;50314;50.618;10.642;2022-11-20T11:24:25;9.90;;;6.18;;
64063;SDS011;50314;50.618;10.642;2022-11-20T11:26:53;8.65;;;5.90;;
64063;SDS011;50314;50.618;10.642;2022-11-20T11:29:22;10.05;;;6.57;;
64063;SDS011;50314;50.618;10.642;2022-11-20T11:31:48;10.02;;;6.97;;
64063;SDS011;50314;50.618;10.642;2022-11-20T11:34:15;9.50;;;6.32;;
64063;SDS011;50314;50.618;10.642;2022-11-20T11:36:42;10.00;;;7.13;;
64063;SDS011;50314;50.618;10.642;2022-11-20T11:39:20;9.20;;;5.85;;
64063;SDS011;50314;50.618;10.642;2022-11-20T11:41:46;9.85;;;6.18;;
64063;SDS011;50314;50.618;10.642;2022-11-20T11:44:15;10.05;;;6.78;;
64063;SDS011;50314;50.618;10.642;2022-11-20T11:47:24;8.95;;;5.43;;
64063;SDS011;50314;50.618;10.642;2022-11-20T11:50:27;8.32;;;5.80;;
64063;SDS011;50314;50.618;10.642;2022-11-20T11:52:55;8.73;;;6.10;;
64063;SDS011;50314;50.618;10.642;2022-11-20T11:55:51;9.35;;;6.40;;
64063;SDS011;50314;50.618;10.642;2022-11-20T12:06:58;10.13;;;6.30;;
64063;SDS011;50314;50.618;10.642;2022-11-20T12:09:33;9.23;;;5.90;;
64063;SDS011;50314;50.618;10.642;2022-11-20T12:12:14;9.40;;;5.95;;
64063;SDS011;50314;50.618;10.642;2022-11-20T12:14:46;9.02;;;5.75;;
64063;SDS011;50314;50.618;10.642;2022-11-20T12:17:16;8.48;;;5.47;;
64063;SDS011;50314;50.618;10.642;2022-11-20T12:19:42;8.70;;;6.38;;
64063;SDS011;50314;50.618;10.642;2022-11-20T12:25:12;9.60;;;5.70;;
64063;SDS011;50314;50.618;10.642;2022-11-20T12:30:18;8.18;;;5.47;;
64063;SDS011;50314;50.618;10.642;2022-11-20T12:35:35;6.93;;;5.18;;
64063;SDS011;50314;50.618;10.642;2022-11-20T12:45:02;8.05;;;5.10;;
64063;SDS011;50314;50.618;10.642;2022-11-20T12:50:26;7.63;;;4.68;;
64063;SDS011;50314;50.618;10.642;2022-11-20T12:52:58;7.57;;;5.88;;
64063;SDS011;50314;50.618;10.642;2022-11-20T13:00:55;6.10;;;4.20;;
64063;SDS011;50314;50.618;10.642;2022-11-20T13:03:32;7.78;;;4.50;;
64063;SDS011;50314;50.618;10.642;2022-11-20T13:06:16;7.07;;;5.10;;
64063;SDS011;50314;50.618;10.642;2022-11-20T13:08:54;6.55;;;4.53;;
64063;SDS011;50314;50.618;10.642;2022-11-20T13:16:45;6.53;;;4.32;;
64063;SDS011;50314;50.618;10.642;2022-11-20T13:19:39;7.25;;;4.47;;
64063;SDS011;50314;50.618;10.642;2022-11-20T13:22:07;8.32;;;4.72;;
64063;SDS011;50314;50.618;10.642;2022-11-20T13:24:34;7.20;;;4.82;;
64063;SDS011;50314;50.618;10.642;2022-11-20T13:27:03;6.45;;;4.05;;
64063;SDS011;50314;50.618;10.642;2022-11-20T13:29:37;9.02;;;5.22;;
64063;SDS011;50314;50.618;10.642;2022-11-20T13:34:52;7.40;;;4.43;;
64063;SDS011;50314;50.618;10.642;2022-11-20T13:45:33;6.93;;;4.28;;
64063;SDS011;50314;50.618;10.642;2022-11-20T13:48:02;6.13;;;4.32;;
64063;SDS011;50314;50.618;10.642;2022-11-20T13:56:00;6.70;;;4.13;;
64063;SDS011;50314;50.618;10.642;2022-11-20T14:01:08;6.72;;;4.65;;
64063;SDS011;50314;50.618;10.642;2022-11-20T14:03:35;6.97;;;4.28;;
64063;SDS011;50314;50.618;10.642;2022-11-20T14:06:04;7.00;;;4.15;;
64063;SDS011;50314;50.618;10.642;2022-11-20T14:11:15;6.70;;;4.38;;
64063;SDS011;50314;50.618;10.642;2022-11-20T14:14:47;5.93;;;3.92;;
64063;SDS011;50314;50.618;10.642;2022-11-20T14:16:41;6.80;;;4.15;;
64063;SDS011;50314;50.618;10.642;2022-11-20T14:19:25;6.97;;;4.38;;
64063;SDS011;50314;50.618;10.642;2022-11-20T14:21:54;6.85;;;4.10;;
64063;SDS011;50314;50.618;10.642;2022-11-20T14:24:32;6.20;;;3.70;;
64063;SDS011;50314;50.618;10.642;2022-11-20T14:26:58;6.28;;;4.22;;
64063;SDS011;50314;50.618;10.642;2022-11-20T14:29:27;6.18;;;4.03;;
64063;SDS011;50314;50.618;10.642;2022-11-20T14:31:55;6.82;;;3.90;;
64063;SDS011;50314;50.618;10.642;2022-11-20T14:34:23;6.28;;;3.90;;
64063;SDS011;50314;50.618;10.642;2022-11-20T14:36:52;7.15;;;4.13;;
64063;SDS011;50314;50.618;10.642;2022-11-20T14:39:22;6.88;;;3.92;;
64063;SDS011;50314;50.618;10.642;2022-11-20T14:41:54;7.15;;;3.88;;
64063;SDS011;50314;50.618;10.642;2022-11-20T14:44:20;8.80;;;4.88;;
64063;SDS011;50314;50.618;10.642;2022-11-20T14:46:51;5.85;;;3.95;;
64063;SDS011;50314;50.618;10.642;2022-11-20T14:49:17;5.32;;;3.38;;
64063;SDS011;50314;50.618;10.642;2022-11-20T14:51:43;7.03;;;4.30;;
64063;SDS011;50314;50.618;10.642;2022-11-20T14:54:11;7.10;;;4.72;;
64063;SDS011;50314;50.618;10.642;2022-11-20T14:56:56;6.10;;;3.72;;
64063;SDS011;50314;50.618;10.642;2022-11-20T14:59:30;6.65;;;4.45;;
64063;SDS011;50314;50.618;10.642;2022-11-20T15:01:59;6.25;;;4.35;;
64063;SDS011;50314;50.618;10.642;2022-11-20T15:04:27;6.32;;;4.07;;
64063;SDS011;50314;50.618;10.642;2022-11-20T15:06:54;6.22;;;4.53;;
64063;SDS011;50314;50.618;10.642;2022-11-20T15:09:21;6.78;;;4.20;;
64063;SDS011;50314;50.618;10.642;2022-11-20T15:12:02;5.65;;;3.90;;
64063;SDS011;50314;50.618;10.642;2022-11-20T15:14:28;5.45;;;3.70;;
64063;SDS011;50314;50.618;10.642;2022-11-20T15:16:58;6.30;;;3.75;;
64063;SDS011;50314;50.618;10.642;2022-11-20T15:19:25;6.97;;;4.38;;
64063;SDS011;50314;50.618;10.642;2022-11-20T15:24:17;5.97;;;4.07;;
64063;SDS011;50314;50.618;10.642;2022-11-20T15:26:44;5.47;;;3.17;;
64063;SDS011;50314;50.618;10.642;2022-11-20T15:29:14;7.40;;;4.60;;
64063;SDS011;50314;50.618;10.642;2022-11-20T15:31:46;5.50;;;3.38;;
64063;SDS011;50314;50.618;10.642;2022-11-20T15:34:12;5.95;;;4.05;;
64063;SDS011;50314;50.618;10.642;2022-11-20T15:36:40;6.30;;;4.43;;
64063;SDS011;50314;50.618;10.642;2022-11-20T15:39:06;6.30;;;4.15;;
64063;SDS011;50314;50.618;10.642;2022-11-20T15:41:35;6.85;;;4.28;;
64063;SDS011;50314;50.618;10.642;2022-11-20T15:44:02;5.85;;;3.70;;
64063;SDS011;50314;50.618;10.642;2022-11-20T15:46:32;6.75;;;4.03;;
64063;SDS011;50314;50.618;10.642;2022-11-20T15:49:03;6.25;;;4.07;;
64063;SDS011;50314;50.618;10.642;2022-11-20T15:51:31;6.00;;;4.32;;
64063;SDS011;50314;50.618;10.642;2022-11-20T15:53:58;5.97;;;3.75;;
64063;SDS011;50314;50.618;10.642;2022-11-20T15:56:28;5.93;;;4.18;;
64063;SDS011;50314;50.618;10.642;2022-11-20T15:58:53;6.00;;;4.28;;
64063;SDS011;50314;50.618;10.642;2022-11-20T16:01:20;7.35;;;4.47;;
64063;SDS011;50314;50.618;10.642;2022-11-20T16:03:47;6.05;;;4.30;;
64063;SDS011;50314;50.618;10.642;2022-11-20T16:06:18;6.55;;;4.53;;
64063;SDS011;50314;50.618;10.642;2022-11-20T16:08:43;8.02;;;4.00;;
64063;SDS011;50314;50.618;10.642;2022-11-20T16:11:12;7.22;;;4.45;;
64063;SDS011;50314;50.618;10.642;2022-11-20T16:13:42;6.93;;;4.15;;
64063;SDS011;50314;50.618;10.642;2022-11-20T16:16:28;7.60;;;4.60;;
64063;SDS011;50314;50.618;10.642;2022-11-20T16:18:57;6.82;;;4.95;;
64063;SDS011;50314;50.618;10.642;2022-11-20T16:21:24;6.90;;;4.22;;
64063;SDS011;50314;50.618;10.642;2022-11-20T16:24:05;6.15;;;3.65;;
64063;SDS011;50314;50.618;10.642;2022-11-20T16:26:32;6.10;;;3.72;;
64063;SDS011;50314;50.618;10.642;2022-11-20T16:28:58;7.32;;;4.20;;
64063;SDS011;50314;50.618;10.642;2022-11-20T16:31:25;6.07;;;4.55;;